Time;durP1;ratioP1;P1;durP2;ratioP2;P2;SDS_P1;SDS_P2;PMS_P1;PMS_P2;Temp;Humidity;BMP_temperature;BMP_pressure;BME280_temperature;BME280_humidity;BME280_pressure;Samples;Min_cycle;Max_cycle;Signal;HPM_P1;HPM_P2
2023/04/12 00:00:16;;;;;;;11.55;2.47;;;;;;;;;;4849889;29;20029;-84
2023/04/12 00:02:43;;;;;;;14.05;2.15;;;;;;;;;;4835401;29;20045;-83
2023/04/12 00:05:10;;;;;;;8.98;2.00;;;;;;;;;;4843985;29;20026;-84
2023/04/12 00:07:39;;;;;;;8.00;2.10;;;;;;;;;;4869668;29;20102;-84
2023/04/12 00:13:09;;;;;;;10.80;2.13;;;;;;;;;;4854305;29;20076;-84
2023/04/12 00:15:35;;;;;;;10.88;2.00;;;;;;;;;;4841244;29;20125;-82
2023/04/12 00:18:01;;;;;;;9.15;1.65;;;;;;;;;;4857545;29;20033;-85
2023/04/12 00:20:27;;;;;;;11.90;2.35;;;;;;;;;;4857829;29;20409;-87
2023/04/12 00:22:54;;;;;;;8.35;2.60;;;;;;;;;;4842283;29;20022;-90
2023/04/12 00:25:20;;;;;;;11.73;3.20;;;;;;;;;;4843854;29;20069;-87
2023/04/12 00:27:46;;;;;;;14.60;2.83;;;;;;;;;;4861576;29;20017;-86
2023/04/12 00:30:12;;;;;;;9.98;1.95;;;;;;;;;;4842635;29;20033;-88
2023/04/12 00:32:38;;;;;;;8.73;2.40;;;;;;;;;;4827059;29;20037;-86
2023/04/12 00:35:04;;;;;;;8.50;1.92;;;;;;;;;;4833123;29;20042;-83
2023/04/12 00:37:30;;;;;;;12.05;3.25;;;;;;;;;;4859112;29;20113;-86
2023/04/12 00:39:56;;;;;;;10.27;1.80;;;;;;;;;;4842117;29;20032;-85
2023/04/12 00:42:22;;;;;;;10.98;2.53;;;;;;;;;;4855727;29;20029;-88
2023/04/12 00:44:48;;;;;;;9.05;1.95;;;;;;;;;;4854170;29;20033;-86
2023/04/12 00:47:14;;;;;;;10.48;1.98;;;;;;;;;;4845305;29;20069;-87
2023/04/12 00:49:40;;;;;;;9.43;2.15;;;;;;;;;;4846947;29;20061;-86
2023/04/12 00:52:07;;;;;;;5.28;1.67;;;;;;;;;;4841960;29;20084;-84
2023/04/12 00:54:34;;;;;;;6.88;2.15;;;;;;;;;;4855764;29;20025;-86
2023/04/12 00:57:00;;;;;;;5.25;1.92;;;;;;;;;;4862224;29;20113;-87
2023/04/12 00:59:26;;;;;;;7.97;2.47;;;;;;;;;;4853542;29;21459;-85
2023/04/12 01:01:56;;;;;;;12.05;2.28;;;;;;;;;;4871878;29;20064;-86
2023/04/12 01:04:25;;;;;;;8.52;2.60;;;;;;;;;;4856719;29;20030;-86
2023/04/12 01:07:14;;;;;;;12.23;3.97;;;;;;;;;;4866181;29;20116;-87
2023/04/12 01:09:55;;;;;;;9.82;2.17;;;;;;;;;;4856339;29;20522;-86
2023/04/12 01:12:39;;;;;;;5.80;2.05;;;9.00;99.90;;;;;;4871928;29;20026;-86
2023/04/12 01:15:07;;;;;;;9.73;2.40;;;;;;;;;;4858769;29;20030;-84
2023/04/12 01:17:37;;;;;;;10.20;1.85;;;;;;;;;;4843305;29;20030;-83
2023/04/12 01:20:15;;;;;;;8.23;2.13;;;;;;;;;;4856943;29;20037;-85
2023/04/12 01:22:42;;;;;;;9.45;2.22;;;;;;;;;;4853623;29;20033;-86
2023/04/12 01:25:08;;;;;;;10.15;2.25;;;;;;;;;;4857199;29;20077;-87
2023/04/12 01:27:39;;;;;;;10.57;2.40;;;;;;;;;;4859962;29;20069;-84
2023/04/12 01:30:07;;;;;;;8.07;1.83;;;;;;;;;;4855091;29;20479;-85
2023/04/12 01:32:34;;;;;;;19.52;2.38;;;;;;;;;;4842801;29;20085;-83
2023/04/12 01:35:01;;;;;;;8.93;2.35;;;;;;;;;;4857858;29;20496;-83
2023/04/12 01:37:28;;;;;;;9.73;2.88;;;;;;;;;;4859629;29;20089;-83
2023/04/12 01:39:54;;;;;;;5.97;2.45;;;;;;;;;;4857590;29;20534;-82
2023/04/12 01:42:20;;;;;;;11.73;2.22;;;;;;;;;;4852807;29;20032;-83
2023/04/12 01:44:46;;;;;;;9.68;2.95;;;;;;;;;;4849473;29;20159;-83
2023/04/12 01:47:12;;;;;;;7.20;1.67;;;;;;;;;;4838623;29;20048;-83
2023/04/12 01:50:14;;;;;;;9.15;2.00;;;;;;;;;;4852728;29;20033;-81
2023/04/12 01:52:47;;;;;;;5.90;2.55;;;;;;;;;;4799567;29;20584;-83
2023/04/12 01:55:14;;;;;;;11.68;1.88;;;;;;;;;;4843452;29;20049;-83
2023/04/12 01:57:43;;;;;;;6.80;1.98;;;;;;;;;;4857665;29;20037;-84
2023/04/12 02:00:10;;;;;;;8.75;2.10;;;;;;;;;;4851928;29;20472;-81
2023/04/12 02:02:38;;;;;;;7.10;2.05;;;;;;;;;;4859300;29;20045;-83
2023/04/12 02:05:06;;;;;;;9.52;2.25;;;;;;;;;;4856954;29;20026;-84
2023/04/12 02:07:36;;;;;;;9.07;2.75;;;;;;;;;;4857303;29;20042;-84
2023/04/12 02:10:02;;;;;;;8.18;2.05;;;;;;;;;;4853908;29;20117;-82
2023/04/12 02:12:28;;;;;;;11.90;2.55;;;;;;;;;;4854679;29;20033;-85
2023/04/12 02:14:56;;;;;;;11.38;2.10;;;;;;;;;;4854486;29;20105;-86
2023/04/12 02:17:22;;;;;;;12.15;2.20;;;;;;;;;;4869484;29;20045;-85
2023/04/12 02:19:48;;;;;;;12.05;3.15;;;;;;;;;;4844006;29;20132;-85
2023/04/12 02:22:14;;;;;;;10.38;2.05;;;;;;;;;;4863861;29;20114;-86
2023/04/12 02:24:40;;;;;;;8.55;2.08;;;;;;;;;;4855472;29;20085;-85
2023/04/12 02:27:06;;;;;;;9.45;1.95;;;;;;;;;;4855718;29;20030;-84
2023/04/12 02:29:32;;;;;;;5.95;1.85;;;;;;;;;;4840970;29;20037;-84
2023/04/12 02:31:59;;;;;;;11.65;2.63;;;;;;;;;;4847378;29;20081;-84
2023/04/12 02:34:25;;;;;;;6.32;2.00;;;;;;;;;;4853803;29;20056;-85
2023/04/12 02:36:51;;;;;;;7.18;2.35;;;;;;;;;;4839450;29;20045;-86
2023/04/12 02:39:17;;;;;;;12.32;1.92;;;;;;;;;;4838965;29;20563;-85
2023/04/12 02:41:43;;;;;;;8.95;2.10;;;;;;;;;;4842735;29;20072;-84
2023/04/12 02:44:10;;;;;;;6.68;1.90;;;;;;;;;;4851444;29;20041;-86
2023/04/12 02:46:36;;;;;;;10.27;2.47;;;;;;;;;;4841372;29;20500;-81
2023/04/12 02:49:02;;;;;;;11.65;1.90;;;;;;;;;;4852823;29;20432;-85
2023/04/12 02:51:28;;;;;;;6.88;1.42;;;;;;;;;;4835251;29;20058;-82
2023/04/12 02:53:54;;;;;;;9.57;1.90;;;;;;;;;;4863782;29;20041;-81
2023/04/12 02:56:20;;;;;;;6.68;1.60;;;;;;;;;;4855750;29;20089;-85
2023/04/12 02:58:46;;;;;;;9.82;1.75;;;;;;;;;;4855059;29;20117;-81
2023/04/12 03:01:13;;;;;;;9.32;2.03;;;;;;;;;;4861888;29;20037;-83
2023/04/12 03:03:39;;;;;;;6.28;2.28;;;;;;;;;;4862194;29;20085;-82
2023/04/12 03:06:08;;;;;;;6.30;1.95;;;;;;;;;;4870139;29;20036;-80
2023/04/12 03:08:35;;;;;;;5.30;1.50;;;;;;;;;;4869382;29;20044;-85
2023/04/12 03:11:01;;;;;;;9.07;2.80;;;;;;;;;;4867163;29;20212;-85
2023/04/12 03:13:27;;;;;;;8.75;2.45;;;;;;;;;;4870957;29;20041;-84
2023/04/12 03:15:56;;;;;;;8.10;2.28;;;;;;;;;;4864592;29;20029;-85
2023/04/12 03:18:22;;;;;;;7.50;1.58;;;;;;;;;;4863327;29;20086;-85
2023/04/12 03:20:48;;;;;;;12.38;2.47;;;;;;;;;;4859242;29;20136;-85
2023/04/12 03:23:14;;;;;;;8.02;1.88;;;;;;;;;;4851194;29;21194;-84
2023/04/12 03:25:41;;;;;;;10.85;2.08;;;;;;;;;;4849449;29;20033;-83
2023/04/12 03:28:07;;;;;;;7.50;2.13;;;;;;;;;;4839663;29;20041;-84
2023/04/12 03:30:33;;;;;;;7.88;2.25;;;;;;;;;;4856536;29;20041;-82
2023/04/12 03:32:59;;;;;;;6.80;1.98;;;;;;;;;;4856112;29;20034;-83
2023/04/12 03:35:25;;;;;;;7.75;2.15;;;;;;;;;;4860846;29;20040;-82
2023/04/12 03:37:51;;;;;;;11.18;2.50;;;;;;;;;;4841021;29;20034;-83
2023/04/12 03:40:17;;;;;;;8.95;2.05;;;;;;;;;;4833189;29;20026;-81
2023/04/12 03:42:43;;;;;;;8.43;2.35;;;;;;;;;;4837142;29;20053;-81
2023/04/12 03:45:10;;;;;;;6.68;2.30;;;;;;;;;;4838776;29;20034;-82
2023/04/12 03:47:36;;;;;;;9.75;2.50;;;;;;;;;;4844977;29;20040;-81
2023/04/12 03:50:05;;;;;;;8.32;1.98;;;;;;;;;;4858271;29;20029;-81
2023/04/12 03:52:31;;;;;;;7.35;2.10;;;;;;;;;;4872522;29;20050;-82
2023/04/12 03:54:57;;;;;;;8.30;1.90;;;;;;;;;;4856753;29;20025;-83
2023/04/12 03:57:23;;;;;;;14.38;2.03;;;;;;;;;;4859615;29;20053;-82
2023/04/12 03:59:50;;;;;;;6.63;1.52;;;;;;;;;;4856037;29;20090;-82
2023/04/12 04:02:16;;;;;;;9.70;2.78;;;;;;;;;;4842939;29;20132;-81
2023/04/12 04:04:43;;;;;;;10.45;2.63;;;;;;;;;;4875404;29;20490;-82
2023/04/12 04:07:09;;;;;;;7.93;1.52;;;;;;;;;;4841334;29;20038;-83
2023/04/12 04:09:35;;;;;;;6.78;1.50;;;;;;;;;;4871709;29;20045;-81
2023/04/12 04:12:01;;;;;;;10.55;1.88;;;;;;;;;;4857073;29;20084;-83
2023/04/12 04:14:27;;;;;;;9.15;1.63;;;;;;;;;;4858013;29;20048;-82
2023/04/12 04:16:54;;;;;;;8.68;2.00;;;;;;;;;;4855577;29;20460;-82
2023/04/12 04:19:20;;;;;;;9.13;2.05;;;;;;;;;;4840011;29;20531;-82
2023/04/12 04:21:46;;;;;;;6.30;1.90;;;;;;;;;;4827779;29;20097;-82
2023/04/12 04:24:13;;;;;;;10.52;2.05;;;;;;;;;;4850657;29;20018;-82
2023/04/12 04:26:39;;;;;;;6.95;2.40;;;;;;;;;;4857772;29;20045;-80
2023/04/12 04:29:05;;;;;;;8.40;3.08;;;;;;;;;;4852963;29;20033;-84
2023/04/12 04:31:35;;;;;;;10.48;2.20;;;;;;;;;;4841375;29;20046;-79
2023/04/12 04:34:05;;;;;;;10.57;2.50;;;;;;;;;;4842056;29;20379;-81
2023/04/12 04:36:33;;;;;;;9.10;2.22;;;;;;;;;;4853502;29;20033;-81
2023/04/12 04:38:59;;;;;;;10.40;2.00;;;;;;;;;;4856279;29;20037;-79
2023/04/12 04:41:26;;;;;;;9.38;2.42;;;;;;;;;;4836968;29;20073;-82
2023/04/12 04:43:53;;;;;;;7.47;2.60;;;;;;;;;;4866935;29;20037;-81
2023/04/12 04:46:22;;;;;;;9.35;2.00;;;;;;;;;;4852380;29;20439;-80
2023/04/12 04:48:48;;;;;;;11.00;2.70;;;;;;;;;;4857355;29;20178;-82
2023/04/12 04:51:14;;;;;;;10.65;2.22;;;;;;;;;;4852230;29;20105;-82
2023/04/12 04:53:40;;;;;;;7.95;2.30;;;;;;;;;;4854933;29;20041;-82
2023/04/12 04:56:06;;;;;;;15.50;3.13;;;;;;;;;;4864291;29;20051;-83
2023/04/12 04:58:32;;;;;;;10.55;2.78;;;;;;;;;;4845071;29;20029;-81
2023/04/12 05:00:58;;;;;;;10.05;2.85;;;;;;;;;;4865711;29;20120;-76
2023/04/12 05:03:28;;;;;;;9.73;3.10;;;;;;;;;;4835436;29;20067;-77
2023/04/12 05:05:57;;;;;;;8.30;2.85;;;;;;;;;;4854522;29;20121;-75
2023/04/12 05:08:24;;;;;;;7.43;3.00;;;;;;;;;;4853465;29;20032;-77
2023/04/12 05:10:51;;;;;;;12.85;4.43;;;;;;;;;;4855877;29;20584;-76
2023/04/12 05:13:17;;;;;;;10.35;4.05;;;;;;;;;;4856089;29;20086;-77
2023/04/12 05:15:43;;;;;;;11.98;4.47;;;;;;;;;;4839381;29;20041;-78
2023/04/12 05:18:09;;;;;;;11.77;4.75;;;;;;;;;;4859645;29;20060;-79
2023/04/12 05:20:37;;;;;;;12.85;5.45;;;;;;;;;;4856319;29;20277;-79
2023/04/12 05:23:03;;;;;;;14.35;5.88;;;;;;;;;;4863356;29;20033;-78
2023/04/12 05:25:29;;;;;;;12.45;6.13;;;;;;;;;;4855885;29;22123;-80
2023/04/12 05:27:55;;;;;;;11.90;6.43;;;;;;;;;;4852704;29;20040;-79
2023/04/12 05:30:21;;;;;;;18.98;6.63;;;;;;;;;;4838902;29;20030;-78
2023/04/12 05:32:47;;;;;;;16.02;7.82;;;;;;;;;;4854224;29;20455;-78
2023/04/12 05:35:14;;;;;;;17.73;10.00;;;;;;;;;;4854089;29;20178;-77
2023/04/12 05:37:40;;;;;;;16.58;8.75;;;;;;;;;;4842796;29;20030;-76
2023/04/12 05:40:08;;;;;;;17.80;8.85;;;;;;;;;;4858356;29;20375;-79
2023/04/12 05:42:35;;;;;;;21.13;9.40;;;;;;;;;;4851864;29;20483;-80
2023/04/12 05:45:02;;;;;;;13.40;9.40;;;;;;;;;;4853208;29;20036;-80
2023/04/12 05:47:28;;;;;;;17.60;9.20;;;;;;;;;;4857486;29;20105;-80
2023/04/12 05:49:54;;;;;;;18.35;9.35;;;;;;;;;;4847956;29;20052;-81
2023/04/12 05:52:23;;;;;;;13.23;9.27;;;;;;;;;;4826181;29;20034;-78
2023/04/12 05:54:50;;;;;;;18.35;10.57;;;;;;;;;;4828587;29;20030;-80
2023/04/12 05:57:16;;;;;;;13.43;9.05;;;;;;;;;;4832366;29;20026;-81
2023/04/12 05:59:42;;;;;;;15.02;8.38;;;;;;;;;;4821147;29;20520;-80
2023/04/12 06:02:09;;;;;;;14.23;8.25;;;;;;;;;;4801003;29;20398;-78
2023/04/12 06:04:37;;;;;;;15.05;8.05;;;;;;;;;;4814065;29;20025;-80
2023/04/12 06:07:04;;;;;;;15.57;8.52;;;;;;;;;;4807340;29;20036;-79
2023/04/12 06:09:31;;;;;;;11.18;7.35;;;;;;;;;;4823802;29;20072;-81
2023/04/12 06:11:57;;;;;;;13.27;8.27;;;;;;;;;;4818553;29;20065;-79
2023/04/12 06:14:23;;;;;;;14.75;7.93;;;;;;;;;;4804351;29;20090;-79
2023/04/12 06:16:49;;;;;;;14.93;6.78;;;;;;;;;;4819733;29;20056;-77
2023/04/12 06:19:15;;;;;;;11.32;6.22;;;;;;;;;;4817818;29;20109;-76
2023/04/12 06:21:42;;;;;;;13.45;6.03;;;;;;;;;;4818880;29;20036;-78
2023/04/12 06:24:08;;;;;;;14.10;6.70;;;;;;;;;;4828103;29;20045;-79
2023/04/12 06:26:35;;;;;;;11.95;6.70;;;;;;;;;;4833964;29;20049;-77
2023/04/12 06:29:01;;;;;;;10.95;6.10;;;;;;;;;;4824089;29;20026;-79
2023/04/12 06:31:27;;;;;;;12.90;7.35;;;;;;;;;;4836137;29;20129;-78
2023/04/12 06:33:53;;;;;;;15.75;7.57;;;;;;;;;;4835648;29;20064;-80
2023/04/12 06:36:19;;;;;;;13.93;6.18;;;;;;;;;;4812564;29;20030;-87
2023/04/12 06:38:45;;;;;;;15.35;6.82;;;;;;;;;;4819481;29;20022;-80
2023/04/12 06:41:11;;;;;;;14.27;6.65;;;;;;;;;;4803775;29;20034;-83
2023/04/12 06:43:37;;;;;;;13.40;6.50;;;;;;;;;;4825014;29;20026;-89
2023/04/12 06:46:03;;;;;;;11.80;7.55;;;;;;;;;;4809141;29;20026;-86
2023/04/12 06:48:29;;;;;;;10.70;6.65;;;;;;;;;;4804491;29;20123;-85
2023/04/12 06:50:56;;;;;;;12.63;6.78;;;;;;;;;;4850922;29;20160;-82
2023/04/12 06:53:22;;;;;;;12.05;7.05;;;;;;;;;;4837550;29;20502;-77
2023/04/12 06:55:48;;;;;;;14.88;7.28;;;;;;;;;;4846536;29;20058;-78
2023/04/12 06:58:14;;;;;;;12.00;7.25;;;;;;;;;;4835844;29;20029;-78
2023/04/12 07:00:40;;;;;;;11.50;7.50;;;;;;;;;;4865841;29;20463;-78
2023/04/12 07:03:09;;;;;;;13.93;7.53;;;;;;;;;;4835618;29;20033;-77
2023/04/12 07:05:38;;;;;;;12.40;8.65;;;;;;;;;;4860946;29;20026;-76
2023/04/12 07:08:04;;;;;;;10.20;7.13;;;;;;;;;;4856739;29;20029;-78
2023/04/12 07:10:31;;;;;;;10.27;6.82;;;;;;;;;;4847729;29;20569;-79
2023/04/12 07:13:02;;;;;;;10.35;7.25;;;;;;;;;;4853250;29;20127;-78
2023/04/12 07:15:28;;;;;;;11.20;7.05;;;;;;;;;;4852841;29;20511;-78
2023/04/12 07:17:54;;;;;;;10.70;5.90;;;;;;;;;;4851856;29;20025;-77
2023/04/12 07:20:20;;;;;;;10.30;7.60;;;;;;;;;;4844235;29;20030;-78
2023/04/12 07:22:46;;;;;;;10.02;6.80;;;;;;;;;;4849882;29;20177;-78
2023/04/12 07:25:12;;;;;;;11.27;6.70;;;;;;;;;;4849678;29;20124;-78
2023/04/12 07:27:38;;;;;;;12.27;8.07;;;;;;;;;;4849588;29;20086;-75
2023/04/12 07:30:05;;;;;;;13.73;6.88;;;;;;;;;;4850497;29;20547;-76
2023/04/12 07:32:31;;;;;;;10.00;7.55;;;;;;;;;;4845872;29;20130;-76
2023/04/12 07:34:57;;;;;;;11.52;7.57;;;;;;;;;;4854484;29;20185;-76
2023/04/12 07:37:23;;;;;;;10.07;7.45;;;;;;;;;;4833122;29;20030;-76
2023/04/12 07:39:50;;;;;;;11.82;7.70;;;;;;;;;;4852060;29;20033;-76
2023/04/12 07:42:16;;;;;;;12.35;8.40;;;;;;;;;;4854349;29;20690;-77
2023/04/12 07:44:42;;;;;;;12.07;8.65;;;;;;;;;;4852208;29;20029;-77
2023/04/12 07:47:08;;;;;;;18.23;8.35;;;;;;;;;;4833531;29;20038;-76
2023/04/12 07:49:34;;;;;;;10.38;7.25;;;;;;;;;;4853683;29;20042;-76
2023/04/12 07:52:00;;;;;;;11.23;6.85;;;;;;;;;;4853890;29;20042;-76
2023/04/12 07:54:27;;;;;;;8.82;6.07;;;;;;;;;;4852138;29;20026;-78
2023/04/12 07:57:01;;;;;;;10.77;6.43;;;;;;;;;;4849460;29;20476;-78
2023/04/12 07:59:27;;;;;;;8.65;6.13;;;;;;;;;;4836486;29;20387;-76
2023/04/12 08:01:54;;;;;;;9.13;6.30;;;;;;;;;;4846354;29;20026;-76
2023/04/12 08:04:20;;;;;;;9.23;5.80;;;;;;;;;;4854314;29;20030;-79
2023/04/12 08:06:46;;;;;;;9.43;5.55;;;;;;;;;;4856954;29;20056;-80
2023/04/12 08:09:12;;;;;;;7.60;5.00;;;;;;;;;;4849903;29;20718;-81
2023/04/12 08:11:38;;;;;;;10.30;5.28;;;;;;;;;;4850331;29;20069;-81
2023/04/12 08:14:04;;;;;;;6.78;4.55;;;;;;;;;;4855108;29;20042;-83
2023/04/12 08:16:31;;;;;;;9.70;4.30;;;;;;;;;;4837951;29;20033;-81
2023/04/12 08:18:57;;;;;;;4.93;4.25;;;;;;;;;;4850216;29;20053;-84
2023/04/12 08:21:23;;;;;;;5.55;4.13;;;;;;;;;;4856312;29;20048;-85
2023/04/12 08:23:49;;;;;;;6.45;4.55;;;;;;;;;;4853321;29;20443;-83
2023/04/12 08:26:16;;;;;;;8.13;4.75;;;;;;;;;;4863702;29;20033;-83
2023/04/12 08:28:42;;;;;;;11.57;3.88;;;;;;;;;;4841310;29;20041;-81
2023/04/12 08:31:08;;;;;;;6.13;4.88;;;;;;;;;;4859922;29;20045;-82
2023/04/12 08:33:34;;;;;;;6.03;4.22;;;;;;;;;;4847836;29;20033;-82
2023/04/12 08:36:00;;;;;;;3.67;3.30;;;;;;;;;;4851462;29;20166;-83
2023/04/12 08:38:26;;;;;;;5.20;3.70;;;;;;;;;;4851620;29;20447;-82
2023/04/12 08:40:52;;;;;;;7.32;3.33;;;;;;;;;;4867920;29;20044;-80
2023/04/12 08:43:19;;;;;;;5.70;3.50;;;;;;;;;;4847702;29;20433;-80
2023/04/12 08:45:45;;;;;;;8.63;4.38;;;;;;;;;;4856934;29;20064;-82
2023/04/12 08:48:12;;;;;;;5.72;4.13;;;;;;;;;;4853090;29;20040;-82
2023/04/12 08:50:38;;;;;;;7.07;4.00;;;;;;;;;;4862280;29;20057;-81
2023/04/12 08:53:04;;;;;;;12.25;5.15;;;;;;;;;;4853249;29;20123;-80
2023/04/12 08:55:31;;;;;;;6.30;4.47;;;;;;;;;;4836811;29;20033;-78
2023/04/12 08:57:58;;;;;;;10.25;4.50;;;;;;;;;;4845819;29;20041;-81
2023/04/12 09:00:25;;;;;;;6.90;4.30;;;;;;;;;;4865535;29;20034;-81
2023/04/12 09:02:51;;;;;;;6.20;3.65;;;;;;;;;;4845355;29;20124;-83
2023/04/12 09:05:17;;;;;;;8.52;4.18;;;;;;;;;;4843054;29;20041;-83
2023/04/12 09:07:43;;;;;;;7.95;4.25;;;;;;;;;;4841537;29;20033;-83
2023/04/12 09:10:09;;;;;;;10.38;4.93;;;;;;;;;;4856537;29;20124;-83
2023/04/12 09:12:44;;;;;;;11.23;4.35;;;;;;;;;;4840278;29;20074;-82
2023/04/12 09:15:16;;;;;;;6.85;4.68;;;;;;;;;;4855780;29;20029;-84
2023/04/12 09:17:42;;;;;;;8.10;4.70;;;;;;;;;;4875394;29;20030;-83
2023/04/12 09:20:29;;;;;;;9.10;5.00;;;;;;;;;;4859778;29;20415;-83
2023/04/12 09:22:55;;;;;;;7.80;3.35;;;;;;;;;;4856242;29;20147;-87
2023/04/12 09:25:37;;;;;;;7.60;2.83;;;;;;;;;;4843441;29;20551;-87
2023/04/12 09:28:03;;;;;;;;;;;11.20;99.90;;;;;;4874589;29;20038;-84
2023/04/12 09:30:30;;;;;;;11.52;3.92;;;;;;;;;;4859583;29;19919;-84
2023/04/12 09:32:56;;;;;;;4.97;2.38;;;;;;;;;;4872298;29;20033;-85
2023/04/12 09:35:34;;;;;;;12.00;2.90;;;;;;;;;;4855604;29;20095;-86
2023/04/12 09:38:07;;;;;;;6.65;2.90;;;;;;;;;;4854098;29;20557;-84
2023/04/12 09:40:35;;;;;;;9.23;2.97;;;;;;;;;;4857928;29;20514;-84
2023/04/12 09:43:02;;;;;;;9.80;3.10;;;;;;;;;;4857172;29;20057;-84
2023/04/12 09:45:30;;;;;;;14.30;2.63;;;;;;;;;;4843401;29;20491;-85
2023/04/12 09:47:56;;;;;;;11.98;2.97;;;;;;;;;;4855488;29;20053;-86
2023/04/12 09:50:27;;;;;;;8.40;2.60;;;;;;;;;;4872452;29;20498;-85
2023/04/12 09:52:54;;;;;;;12.35;2.63;;;;;;;;;;4873521;29;20396;-86
2023/04/12 09:55:22;;;;;;;9.50;2.40;;;;;;;;;;4859237;29;20065;-87
2023/04/12 09:57:50;;;;;;;12.27;3.45;;;;;;;;;;4855172;29;20058;-88
2023/04/12 10:00:16;;;;;;;10.40;1.63;;;;;;;;;;4853466;29;20567;-87
2023/04/12 10:02:43;;;;;;;11.63;2.20;;;;;;;;;;4829812;29;20120;-86
2023/04/12 10:05:13;;;;;;;10.50;2.58;;;;;;;;;;4845403;29;20033;-81
2023/04/12 10:07:41;;;;;;;15.98;2.60;;;;;;;;;;4864581;29;20049;-81
2023/04/12 10:10:07;;;;;;;12.98;3.10;;;;;;;;;;4866017;29;20026;-81
2023/04/12 10:12:36;;;;;;;17.83;3.17;;;;;;;;;;4851614;29;20109;-84
2023/04/12 10:15:06;;;;;;;23.30;3.30;;;;;;;;;;4852700;29;20487;-84
2023/04/12 10:17:34;;;;;;;10.80;2.78;;;;;;;;;;4849810;29;20040;-82
2023/04/12 10:20:00;;;;;;;22.30;4.63;;;;;;;;;;4847856;29;20064;-91
2023/04/12 10:22:27;;;;;;;19.33;5.78;;;;;;;;;;4866102;29;20041;-86
2023/04/12 10:24:53;;;;;;;21.40;5.13;;;;;;;;;;4875002;29;20037;-87
2023/04/12 10:27:26;;;;;;;22.85;3.03;;;;;;;;;;4856871;29;20045;-86
2023/04/12 10:29:52;;;;;;;20.17;3.63;;;;;;;;;;4861117;29;21310;-79
2023/04/12 10:32:19;;;;;;;16.13;3.33;;;;;;;;;;4841290;29;20993;-77
2023/04/12 10:34:49;;;;;;;20.75;3.50;;;;;;;;;;4853129;29;20125;-88
2023/04/12 10:40:15;;;;;;;19.83;4.30;;;;;;;;;;5000927;24;20053;-85
2023/04/12 10:42:42;;;;;;;18.63;3.40;;;;;;;;;;4872726;29;20499;-84
2023/04/12 10:45:23;;;;;;;15.48;3.03;;;;;;;;;;4857754;29;20113;-86
2023/04/12 10:47:49;;;;;;;12.20;3.50;;;;;;;;;;4858373;29;20123;-84
2023/04/12 10:50:29;;;;;;;16.40;2.90;;;;;;;;;;4867359;29;20437;-84
2023/04/12 10:53:11;;;;;;;17.20;4.03;;;;;;;;;;4878767;29;20061;-89
2023/04/12 10:55:38;;;;;;;15.02;3.40;;;;;;;;;;4874165;29;20384;-86
2023/04/12 10:58:04;;;;;;;16.30;4.80;;;;;;;;;;4859287;29;20124;-84
2023/04/12 11:00:48;;;;;;;16.30;3.55;;;;;;;;;;4851991;29;20037;-84
2023/04/12 11:03:14;;;;;;;10.52;2.95;;;;;;;;;;4848615;29;20048;-88
2023/04/12 11:06:07;;;;;;;19.73;3.55;;;;;;;;;;4833300;29;20596;-87
2023/04/12 11:08:39;;;;;;;19.83;4.10;;;;;;;;;;4857977;29;20498;-83
2023/04/12 11:11:18;;;;;;;33.03;4.70;;;;;;;;;;4861128;29;20030;-85
2023/04/12 11:13:44;;;;;;;18.98;3.90;;;;;;;;;;4858739;29;20683;-86
2023/04/12 11:16:13;;;;;;;15.77;3.60;;;;;;;;;;4844746;29;20030;-87
2023/04/12 11:18:39;;;;;;;16.17;3.00;;;;;;;;;;4855627;29;20021;-86
2023/04/12 11:21:07;;;;;;;14.88;3.20;;;;;;;;;;4845114;29;20284;-82
2023/04/12 11:23:35;;;;;;;20.98;3.08;;;;;;;;;;4832248;29;20566;-83
2023/04/12 11:26:02;;;;;;;24.02;3.05;;;;;;;;;;4845847;29;20361;-85
2023/04/12 11:28:29;;;;;;;22.45;4.32;;;;;;;;;;4861571;29;20026;-85
2023/04/12 11:30:58;;;;;;;26.85;4.32;;;;;;;;;;4850035;29;20038;-84
2023/04/12 11:33:31;;;;;;;20.02;3.30;;;;;;;;;;4841053;29;20039;-82
2023/04/12 11:35:57;;;;;;;15.85;3.33;;;;;;;;;;4839825;29;20041;-82
2023/04/12 11:38:23;;;;;;;21.85;3.15;;;;;;;;;;4835830;29;20105;-83
2023/04/12 11:40:49;;;;;;;16.70;2.97;;;;;;;;;;4832032;29;20058;-85
2023/04/12 11:43:22;;;;;;;24.63;4.65;;;;;;;;;;4847449;29;20029;-84
2023/04/12 11:45:48;;;;;;;11.43;3.17;;;;;;;;;;4842208;29;20041;-86
2023/04/12 11:48:15;;;;;;;22.15;4.13;;;;;;;;;;4849819;29;20048;-84
2023/04/12 11:50:41;;;;;;;16.38;3.72;;;;;;;;;;4876380;29;20038;-89
2023/04/12 11:53:14;;;;;;;18.70;3.45;;;;;;;;;;4875654;29;20038;-89
2023/04/12 11:55:40;;;;;;;16.98;3.03;;;;;;;;;;4887265;29;20041;-87
2023/04/12 11:58:07;;;;;;;19.65;3.28;;;;;;;;;;4888264;29;20033;-89
2023/04/12 12:00:33;;;;;;;14.65;2.25;;;;;;;;;;4877022;29;20032;-87
2023/04/12 12:02:59;;;;;;;23.52;3.65;;;;;;;;;;4850274;29;20022;-89
2023/04/12 12:05:26;;;;;;;11.10;2.40;;;;;;;;;;4862952;29;20037;-87
2023/04/12 12:07:53;;;;;;;9.75;2.60;;;;;;;;;;4850540;29;20065;-88
2023/04/12 12:10:19;;;;;;;11.68;2.45;;;;;;;;;;4858603;29;20480;-86
2023/04/12 12:12:46;;;;;;;11.63;2.95;;;;;;;;;;4880677;29;20041;-84
2023/04/12 12:15:15;;;;;;;16.73;2.70;;;;;;;;;;4899198;29;20014;-86
2023/04/12 12:17:41;;;;;;;21.38;2.88;;;;;;;;;;4875384;29;20034;-86
2023/04/12 12:20:22;;;;;;;12.43;2.83;;;;;;;;;;4860992;29;20010;-86
2023/04/12 12:22:49;;;;;;;16.38;3.05;;;;;;;;;;4879240;29;20030;-87
2023/04/12 12:25:17;;;;;;;13.95;3.13;;;;;;;;;;4872707;29;20022;-85
2023/04/12 12:27:47;;;;;;;16.92;3.00;;;;;;;;;;4859758;29;20026;-85
2023/04/12 12:30:13;;;;;;;13.85;1.85;;;;;;;;;;4858872;29;20050;-87
2023/04/12 12:32:39;;;;;;;16.42;4.10;;;;;;;;;;4865328;29;20471;-87
2023/04/12 12:35:10;;;;;;;10.15;2.47;;;;;;;;;;4860684;29;20037;-87
2023/04/12 12:37:36;;;;;;;9.27;2.05;;;;;;;;;;4864906;29;20042;-87
2023/04/12 12:40:12;;;;;;;14.48;2.70;;;;;;;;;;4865964;29;20106;-86
2023/04/12 12:42:45;;;;;;;11.93;2.83;;;;;;;;;;4866636;29;20034;-88
2023/04/12 12:45:12;;;;;;;11.27;3.10;;;;;;;;;;4868491;29;20033;-87
2023/04/12 12:47:51;;;;;;;8.85;1.95;;;;;;;;;;4868291;29;20033;-87
2023/04/12 12:50:21;;;;;;;8.98;1.58;;;;;;;;;;4866433;29;20037;-87
2023/04/12 12:52:47;;;;;;;9.30;1.80;;;;;;;;;;4881667;29;20039;-86
2023/04/12 12:55:17;;;;;;;11.13;1.90;;;;;;;;;;4877844;29;20444;-86
2023/04/12 12:57:43;;;;;;;8.35;1.40;;;;;;;;;;4866386;29;20033;-87
2023/04/12 13:00:13;;;;;;;11.65;2.25;;;;;;;;;;4863344;29;20029;-88
2023/04/12 13:02:39;;;;;;;6.95;1.52;;;;;;;;;;4866582;29;20029;-87
2023/04/12 13:05:06;;;;;;;9.23;2.17;;;;;;;;;;4861092;29;20178;-88
2023/04/12 13:07:32;;;;;;;10.50;1.80;;;;;;;;;;4866061;29;20040;-88
2023/04/12 13:09:59;;;;;;;7.75;1.90;;;;;;;;;;4892396;29;20014;-84
2023/04/12 13:12:29;;;;;;;10.73;2.20;;;;;;;;;;4879679;29;20499;-86
2023/04/12 13:15:03;;;;;;;12.77;2.45;;;;;;;;;;4862487;29;20044;-84
2023/04/12 13:17:30;;;;;;;14.25;3.05;;;;;;;;;;4865214;29;20037;-84
2023/04/12 13:19:59;;;;;;;9.20;2.13;;;;;;;;;;4863992;29;20038;-87
2023/04/12 13:22:36;;;;;;;12.23;2.33;;;;;;;;;;4837191;29;20145;-86
2023/04/12 13:25:10;;;;;;;9.38;2.20;;;;;;;;;;4837030;29;20034;-87
2023/04/12 13:27:46;;;;;;;12.77;2.67;;;;;;;;;;4846131;29;20060;-86
2023/04/12 13:30:12;;;;;;;12.18;2.42;;;;;;;;;;4852666;29;20030;-87
2023/04/12 13:32:39;;;;;;;17.48;2.53;;;;;;;;;;4862094;29;20037;-86
2023/04/12 13:35:07;;;;;;;17.42;2.28;;;;;;;;;;4857940;29;20042;-86
2023/04/12 13:37:42;;;;;;;16.20;3.08;;;;;;;;;;4873061;29;20391;-85
2023/04/12 13:40:11;;;;;;;8.60;1.75;;;;;;;;;;4859375;29;20053;-90
2023/04/12 13:42:52;;;;;;;11.10;2.47;;;;;;;;;;4879057;29;20070;-86
2023/04/12 13:45:28;;;;;;;14.82;3.13;;;;;;;;;;4868403;29;20085;-87
2023/04/12 13:48:02;;;;;;;14.77;2.90;;;;;;;;;;4863967;29;20047;-88
2023/04/12 13:50:34;;;;;;;14.38;2.58;;;;;;;;;;4860981;29;20087;-87
2023/04/12 13:53:02;;;;;;;12.38;2.50;;;;;;;;;;4864486;29;20117;-87
2023/04/12 13:55:28;;;;;;;17.98;2.53;;;;;;;;;;4867157;29;20037;-86
2023/04/12 13:57:54;;;;;;;19.73;3.35;;;;;;;;;;4862003;29;20495;-89
2023/04/12 14:00:20;;;;;;;14.50;3.05;;;;;;;;;;4860765;29;20483;-88
2023/04/12 14:02:49;;;;;;;12.75;2.47;;;;;;;;;;4859629;29;20040;-89
2023/04/12 14:05:15;;;;;;;14.80;2.50;;;;;;;;;;4869919;29;20037;-87
2023/04/12 14:07:41;;;;;;;28.33;3.15;;;;;;;;;;4869795;29;20067;-87
2023/04/12 14:10:08;;;;;;;14.75;2.88;;;;;;;;;;4879579;29;20021;-89
2023/04/12 14:12:34;;;;;;;10.90;2.30;;;;;;;;;;4860905;29;20061;-87
2023/04/12 14:15:02;;;;;;;16.50;2.70;;;;;;;;;;4869065;29;20037;-88
2023/04/12 14:17:37;;;;;;;14.65;3.53;;;;;;;;;;4873697;29;20048;-87
2023/04/12 14:20:11;;;;;;;12.40;2.45;;;;;;;;;;4855210;29;20053;-87
2023/04/12 14:22:37;;;;;;;14.60;2.78;;;;;;;;;;4853366;29;20033;-86
2023/04/12 14:25:06;;;;;;;15.52;3.05;;;;;;;;;;4873956;29;20085;-87
2023/04/12 14:27:35;;;;;;;15.05;3.55;;;;;;;;;;4860060;29;20460;-86
2023/04/12 14:30:01;;;;;;;10.90;2.88;;;;;;;;;;4858331;29;20097;-85
2023/04/12 14:32:31;;;;;;;9.27;1.90;;;;;;;;;;4858940;29;20034;-84
2023/04/12 14:34:57;;;;;;;16.58;2.30;;;;;;;;;;4871430;29;20086;-84
2023/04/12 14:37:23;;;;;;;15.55;2.53;;;;;;;;;;4863688;29;20037;-86
2023/04/12 14:39:50;;;;;;;12.23;2.50;;;;;;;;;;4871977;29;20060;-85
2023/04/12 14:42:16;;;;;;;8.32;2.03;;;;;;;;;;4841726;29;20203;-87